sensor_id;sensor_type;location;lat;lon;timestamp;P1;durP1;ratioP1;P2;durP2;ratioP2
12986;SDS011;58897;51.960;5.582;2023-04-06T00:00:09;11.97;;;6.27;;
12986;SDS011;58897;51.960;5.582;2023-04-06T00:02:37;7.00;;;4.20;;
12986;SDS011;58897;51.960;5.582;2023-04-06T00:05:03;9.30;;;5.63;;
12986;SDS011;58897;51.960;5.582;2023-04-06T00:07:30;7.87;;;4.80;;
12986;SDS011;58897;51.960;5.582;2023-04-06T00:09:56;11.60;;;5.67;;
12986;SDS011;58897;51.960;5.582;2023-04-06T00:12:23;8.03;;;4.37;;
12986;SDS011;58897;51.960;5.582;2023-04-06T00:14:50;8.87;;;4.90;;
12986;SDS011;58897;51.960;5.582;2023-04-06T00:17:16;10.20;;;6.30;;
12986;SDS011;58897;51.960;5.582;2023-04-06T00:19:44;7.50;;;4.37;;
12986;SDS011;58897;51.960;5.582;2023-04-06T00:22:10;10.93;;;5.43;;
12986;SDS011;58897;51.960;5.582;2023-04-06T00:24:37;11.03;;;5.00;;
12986;SDS011;58897;51.960;5.582;2023-04-06T00:27:03;13.33;;;5.83;;
12986;SDS011;58897;51.960;5.582;2023-04-06T00:29:30;6.33;;;4.10;;
12986;SDS011;58897;51.960;5.582;2023-04-06T00:31:56;8.03;;;4.80;;
12986;SDS011;58897;51.960;5.582;2023-04-06T00:34:23;7.53;;;4.77;;
12986;SDS011;58897;51.960;5.582;2023-04-06T00:36:50;8.83;;;4.97;;
12986;SDS011;58897;51.960;5.582;2023-04-06T00:39:16;16.80;;;5.90;;
12986;SDS011;58897;51.960;5.582;2023-04-06T00:41:46;13.03;;;5.37;;
12986;SDS011;58897;51.960;5.582;2023-04-06T00:44:16;9.70;;;4.87;;
12986;SDS011;58897;51.960;5.582;2023-04-06T00:46:43;7.00;;;5.17;;
12986;SDS011;58897;51.960;5.582;2023-04-06T00:49:10;10.00;;;5.23;;
12986;SDS011;58897;51.960;5.582;2023-04-06T00:51:37;7.50;;;4.23;;
12986;SDS011;58897;51.960;5.582;2023-04-06T00:54:04;8.87;;;4.67;;
12986;SDS011;58897;51.960;5.582;2023-04-06T00:56:31;11.07;;;5.27;;
12986;SDS011;58897;51.960;5.582;2023-04-06T00:58:58;7.23;;;4.07;;
12986;SDS011;58897;51.960;5.582;2023-04-06T01:01:25;6.47;;;3.97;;
12986;SDS011;58897;51.960;5.582;2023-04-06T01:03:51;9.77;;;4.50;;
12986;SDS011;58897;51.960;5.582;2023-04-06T01:06:18;8.47;;;5.27;;
12986;SDS011;58897;51.960;5.582;2023-04-06T01:08:45;6.50;;;4.30;;
12986;SDS011;58897;51.960;5.582;2023-04-06T01:11:12;9.53;;;5.50;;
12986;SDS011;58897;51.960;5.582;2023-04-06T01:13:38;11.70;;;5.93;;
12986;SDS011;58897;51.960;5.582;2023-04-06T01:16:05;11.60;;;5.80;;
12986;SDS011;58897;51.960;5.582;2023-04-06T01:18:32;9.50;;;5.07;;
12986;SDS011;58897;51.960;5.582;2023-04-06T01:20:58;11.57;;;5.70;;
12986;SDS011;58897;51.960;5.582;2023-04-06T01:23:25;10.07;;;4.83;;
12986;SDS011;58897;51.960;5.582;2023-04-06T01:25:52;9.03;;;5.00;;
12986;SDS011;58897;51.960;5.582;2023-04-06T01:28:18;9.43;;;5.20;;
12986;SDS011;58897;51.960;5.582;2023-04-06T01:30:45;9.37;;;5.27;;
12986;SDS011;58897;51.960;5.582;2023-04-06T01:33:12;8.47;;;5.27;;
12986;SDS011;58897;51.960;5.582;2023-04-06T01:35:38;12.63;;;5.43;;
12986;SDS011;58897;51.960;5.582;2023-04-06T01:38:05;8.97;;;5.00;;
12986;SDS011;58897;51.960;5.582;2023-04-06T01:40:32;10.77;;;5.80;;
12986;SDS011;58897;51.960;5.582;2023-04-06T01:42:58;6.83;;;4.53;;
12986;SDS011;58897;51.960;5.582;2023-04-06T01:45:25;9.73;;;5.23;;
12986;SDS011;58897;51.960;5.582;2023-04-06T01:47:52;7.17;;;4.43;;
12986;SDS011;58897;51.960;5.582;2023-04-06T01:50:18;9.87;;;4.23;;
12986;SDS011;58897;51.960;5.582;2023-04-06T01:52:45;9.60;;;4.80;;
12986;SDS011;58897;51.960;5.582;2023-04-06T01:55:12;12.90;;;6.40;;
12986;SDS011;58897;51.960;5.582;2023-04-06T01:57:39;9.40;;;4.90;;
12986;SDS011;58897;51.960;5.582;2023-04-06T02:00:05;10.83;;;5.53;;
12986;SDS011;58897;51.960;5.582;2023-04-06T02:02:32;10.43;;;5.27;;
12986;SDS011;58897;51.960;5.582;2023-04-06T02:04:59;9.03;;;5.03;;
12986;SDS011;58897;51.960;5.582;2023-04-06T02:07:25;8.23;;;5.50;;
12986;SDS011;58897;51.960;5.582;2023-04-06T02:09:53;9.13;;;4.93;;
12986;SDS011;58897;51.960;5.582;2023-04-06T02:12:21;7.67;;;4.90;;
12986;SDS011;58897;51.960;5.582;2023-04-06T02:14:48;8.87;;;5.17;;
12986;SDS011;58897;51.960;5.582;2023-04-06T02:17:15;13.73;;;6.27;;
12986;SDS011;58897;51.960;5.582;2023-04-06T02:19:41;9.30;;;5.93;;
12986;SDS011;58897;51.960;5.582;2023-04-06T02:22:08;13.33;;;5.97;;
12986;SDS011;58897;51.960;5.582;2023-04-06T02:24:36;11.93;;;6.03;;
12986;SDS011;58897;51.960;5.582;2023-04-06T02:27:03;9.77;;;4.93;;
12986;SDS011;58897;51.960;5.582;2023-04-06T02:29:29;11.13;;;5.90;;
12986;SDS011;58897;51.960;5.582;2023-04-06T02:31:56;10.57;;;5.57;;
12986;SDS011;58897;51.960;5.582;2023-04-06T02:34:23;10.00;;;5.80;;
12986;SDS011;58897;51.960;5.582;2023-04-06T02:36:49;8.60;;;5.27;;
12986;SDS011;58897;51.960;5.582;2023-04-06T02:39:16;14.07;;;6.40;;
12986;SDS011;58897;51.960;5.582;2023-04-06T02:41:43;12.73;;;6.43;;
12986;SDS011;58897;51.960;5.582;2023-04-06T02:44:09;12.43;;;6.03;;
12986;SDS011;58897;51.960;5.582;2023-04-06T02:46:36;9.87;;;5.90;;
12986;SDS011;58897;51.960;5.582;2023-04-06T02:49:03;8.67;;;5.60;;
12986;SDS011;58897;51.960;5.582;2023-04-06T02:51:29;8.07;;;5.10;;
12986;SDS011;58897;51.960;5.582;2023-04-06T02:53:56;9.20;;;5.30;;
12986;SDS011;58897;51.960;5.582;2023-04-06T02:56:22;11.47;;;5.73;;
12986;SDS011;58897;51.960;5.582;2023-04-06T02:58:49;10.50;;;5.50;;
12986;SDS011;58897;51.960;5.582;2023-04-06T03:01:15;14.57;;;6.57;;
12986;SDS011;58897;51.960;5.582;2023-04-06T03:03:42;9.53;;;6.00;;
12986;SDS011;58897;51.960;5.582;2023-04-06T03:06:09;11.80;;;6.13;;
12986;SDS011;58897;51.960;5.582;2023-04-06T03:08:35;10.50;;;5.57;;
12986;SDS011;58897;51.960;5.582;2023-04-06T03:11:02;11.93;;;6.50;;
12986;SDS011;58897;51.960;5.582;2023-04-06T03:13:28;7.47;;;4.87;;
12986;SDS011;58897;51.960;5.582;2023-04-06T03:15:55;12.13;;;5.97;;
12986;SDS011;58897;51.960;5.582;2023-04-06T03:18:22;11.73;;;6.13;;
12986;SDS011;58897;51.960;5.582;2023-04-06T03:20:49;8.17;;;5.53;;
12986;SDS011;58897;51.960;5.582;2023-04-06T03:23:19;11.23;;;6.20;;
12986;SDS011;58897;51.960;5.582;2023-04-06T03:25:49;14.43;;;7.83;;
12986;SDS011;58897;51.960;5.582;2023-04-06T03:28:15;12.53;;;6.87;;
12986;SDS011;58897;51.960;5.582;2023-04-06T03:30:44;11.90;;;6.13;;
12986;SDS011;58897;51.960;5.582;2023-04-06T03:33:11;12.90;;;5.33;;
12986;SDS011;58897;51.960;5.582;2023-04-06T03:35:38;13.40;;;6.07;;
12986;SDS011;58897;51.960;5.582;2023-04-06T03:38:04;11.77;;;5.50;;
12986;SDS011;58897;51.960;5.582;2023-04-06T03:40:31;9.13;;;5.67;;
12986;SDS011;58897;51.960;5.582;2023-04-06T03:42:57;10.50;;;5.37;;
12986;SDS011;58897;51.960;5.582;2023-04-06T03:45:24;11.07;;;6.43;;
12986;SDS011;58897;51.960;5.582;2023-04-06T03:47:51;11.67;;;6.80;;
12986;SDS011;58897;51.960;5.582;2023-04-06T03:50:17;14.93;;;6.97;;
12986;SDS011;58897;51.960;5.582;2023-04-06T03:52:45;11.70;;;6.37;;
12986;SDS011;58897;51.960;5.582;2023-04-06T03:55:12;14.13;;;6.83;;
12986;SDS011;58897;51.960;5.582;2023-04-06T03:57:38;13.47;;;7.07;;
12986;SDS011;58897;51.960;5.582;2023-04-06T04:00:05;12.50;;;6.57;;
12986;SDS011;58897;51.960;5.582;2023-04-06T04:02:32;12.47;;;7.37;;
12986;SDS011;58897;51.960;5.582;2023-04-06T04:04:59;13.53;;;6.47;;
12986;SDS011;58897;51.960;5.582;2023-04-06T04:07:25;14.20;;;7.60;;
12986;SDS011;58897;51.960;5.582;2023-04-06T04:09:52;15.20;;;6.63;;
12986;SDS011;58897;51.960;5.582;2023-04-06T04:12:19;17.83;;;8.63;;
12986;SDS011;58897;51.960;5.582;2023-04-06T04:14:46;11.67;;;6.73;;
12986;SDS011;58897;51.960;5.582;2023-04-06T04:17:12;18.00;;;8.03;;
12986;SDS011;58897;51.960;5.582;2023-04-06T04:19:39;14.70;;;8.07;;
12986;SDS011;58897;51.960;5.582;2023-04-06T04:22:06;14.77;;;6.70;;
12986;SDS011;58897;51.960;5.582;2023-04-06T04:24:33;12.10;;;6.10;;
12986;SDS011;58897;51.960;5.582;2023-04-06T04:26:59;14.40;;;7.73;;
12986;SDS011;58897;51.960;5.582;2023-04-06T04:29:29;14.07;;;7.43;;
12986;SDS011;58897;51.960;5.582;2023-04-06T04:31:57;12.60;;;7.13;;
12986;SDS011;58897;51.960;5.582;2023-04-06T04:34:24;15.13;;;8.10;;
12986;SDS011;58897;51.960;5.582;2023-04-06T04:36:52;15.23;;;7.87;;
12986;SDS011;58897;51.960;5.582;2023-04-06T04:39:18;14.53;;;7.43;;
12986;SDS011;58897;51.960;5.582;2023-04-06T04:41:45;12.60;;;7.40;;
12986;SDS011;58897;51.960;5.582;2023-04-06T04:44:11;16.37;;;7.90;;
12986;SDS011;58897;51.960;5.582;2023-04-06T04:46:38;13.93;;;7.27;;
12986;SDS011;58897;51.960;5.582;2023-04-06T04:49:05;17.67;;;7.67;;
12986;SDS011;58897;51.960;5.582;2023-04-06T04:51:31;13.77;;;8.10;;
12986;SDS011;58897;51.960;5.582;2023-04-06T04:53:58;16.07;;;8.67;;
12986;SDS011;58897;51.960;5.582;2023-04-06T04:56:25;16.83;;;8.30;;
12986;SDS011;58897;51.960;5.582;2023-04-06T04:58:53;12.73;;;7.37;;
12986;SDS011;58897;51.960;5.582;2023-04-06T05:01:20;13.33;;;7.80;;
12986;SDS011;58897;51.960;5.582;2023-04-06T05:03:46;14.37;;;7.47;;
12986;SDS011;58897;51.960;5.582;2023-04-06T05:06:13;16.47;;;8.20;;
12986;SDS011;58897;51.960;5.582;2023-04-06T05:08:41;15.17;;;7.80;;
12986;SDS011;58897;51.960;5.582;2023-04-06T05:11:08;16.97;;;8.43;;
12986;SDS011;58897;51.960;5.582;2023-04-06T05:13:35;17.23;;;8.07;;
12986;SDS011;58897;51.960;5.582;2023-04-06T05:16:02;17.43;;;9.67;;
12986;SDS011;58897;51.960;5.582;2023-04-06T05:18:28;16.47;;;8.70;;
12986;SDS011;58897;51.960;5.582;2023-04-06T05:20:55;14.77;;;7.90;;
12986;SDS011;58897;51.960;5.582;2023-04-06T05:23:21;14.70;;;7.90;;
12986;SDS011;58897;51.960;5.582;2023-04-06T05:25:48;16.33;;;9.07;;
12986;SDS011;58897;51.960;5.582;2023-04-06T05:28:15;16.17;;;7.70;;
12986;SDS011;58897;51.960;5.582;2023-04-06T05:30:42;17.07;;;8.90;;
12986;SDS011;58897;51.960;5.582;2023-04-06T05:33:10;14.03;;;7.83;;
12986;SDS011;58897;51.960;5.582;2023-04-06T05:35:37;15.93;;;8.73;;
12986;SDS011;58897;51.960;5.582;2023-04-06T05:38:05;16.13;;;9.17;;
12986;SDS011;58897;51.960;5.582;2023-04-06T05:40:33;14.40;;;8.40;;
12986;SDS011;58897;51.960;5.582;2023-04-06T05:43:00;15.70;;;7.67;;
12986;SDS011;58897;51.960;5.582;2023-04-06T05:45:26;19.33;;;8.93;;
12986;SDS011;58897;51.960;5.582;2023-04-06T05:47:53;15.30;;;8.53;;
12986;SDS011;58897;51.960;5.582;2023-04-06T05:50:20;15.00;;;8.13;;
12986;SDS011;58897;51.960;5.582;2023-04-06T05:52:46;15.63;;;8.47;;
12986;SDS011;58897;51.960;5.582;2023-04-06T05:55:13;13.80;;;8.37;;
12986;SDS011;58897;51.960;5.582;2023-04-06T05:57:39;19.77;;;9.20;;
12986;SDS011;58897;51.960;5.582;2023-04-06T06:00:06;17.37;;;9.37;;
12986;SDS011;58897;51.960;5.582;2023-04-06T06:02:36;16.77;;;8.90;;
12986;SDS011;58897;51.960;5.582;2023-04-06T06:05:03;14.73;;;8.50;;
12986;SDS011;58897;51.960;5.582;2023-04-06T06:07:30;13.70;;;7.63;;
12986;SDS011;58897;51.960;5.582;2023-04-06T06:09:59;19.03;;;9.43;;
12986;SDS011;58897;51.960;5.582;2023-04-06T06:12:26;17.07;;;8.57;;
12986;SDS011;58897;51.960;5.582;2023-04-06T06:14:52;17.27;;;9.13;;
12986;SDS011;58897;51.960;5.582;2023-04-06T06:17:19;18.57;;;9.77;;
12986;SDS011;58897;51.960;5.582;2023-04-06T06:19:45;15.13;;;8.73;;
12986;SDS011;58897;51.960;5.582;2023-04-06T06:22:12;14.90;;;8.70;;
12986;SDS011;58897;51.960;5.582;2023-04-06T06:24:38;15.43;;;8.57;;
12986;SDS011;58897;51.960;5.582;2023-04-06T06:27:05;15.47;;;8.80;;
12986;SDS011;58897;51.960;5.582;2023-04-06T06:29:31;19.03;;;9.03;;
12986;SDS011;58897;51.960;5.582;2023-04-06T06:31:58;19.17;;;8.13;;
12986;SDS011;58897;51.960;5.582;2023-04-06T06:34:24;20.67;;;9.87;;
12986;SDS011;58897;51.960;5.582;2023-04-06T06:36:51;19.87;;;10.70;;
12986;SDS011;58897;51.960;5.582;2023-04-06T06:39:18;21.03;;;9.87;;
12986;SDS011;58897;51.960;5.582;2023-04-06T06:41:44;18.07;;;8.43;;
12986;SDS011;58897;51.960;5.582;2023-04-06T06:44:11;17.27;;;10.40;;
12986;SDS011;58897;51.960;5.582;2023-04-06T06:46:37;17.63;;;9.60;;
12986;SDS011;58897;51.960;5.582;2023-04-06T06:49:04;20.30;;;9.70;;
12986;SDS011;58897;51.960;5.582;2023-04-06T06:51:30;17.20;;;9.20;;
12986;SDS011;58897;51.960;5.582;2023-04-06T06:53:57;18.00;;;8.73;;
12986;SDS011;58897;51.960;5.582;2023-04-06T06:56:23;17.20;;;9.50;;
12986;SDS011;58897;51.960;5.582;2023-04-06T06:58:50;17.37;;;9.63;;
12986;SDS011;58897;51.960;5.582;2023-04-06T07:01:16;18.60;;;9.27;;
12986;SDS011;58897;51.960;5.582;2023-04-06T07:03:43;19.00;;;9.60;;
12986;SDS011;58897;51.960;5.582;2023-04-06T07:06:09;18.50;;;9.37;;
12986;SDS011;58897;51.960;5.582;2023-04-06T07:08:36;16.87;;;9.60;;
12986;SDS011;58897;51.960;5.582;2023-04-06T07:11:02;20.87;;;10.43;;
12986;SDS011;58897;51.960;5.582;2023-04-06T07:13:29;19.37;;;9.73;;
12986;SDS011;58897;51.960;5.582;2023-04-06T07:15:55;17.73;;;10.83;;
12986;SDS011;58897;51.960;5.582;2023-04-06T07:18:22;17.60;;;9.40;;
12986;SDS011;58897;51.960;5.582;2023-04-06T07:20:49;20.73;;;11.23;;
12986;SDS011;58897;51.960;5.582;2023-04-06T07:23:16;18.60;;;10.10;;
12986;SDS011;58897;51.960;5.582;2023-04-06T07:25:42;19.70;;;11.13;;
12986;SDS011;58897;51.960;5.582;2023-04-06T07:28:09;20.93;;;10.70;;
12986;SDS011;58897;51.960;5.582;2023-04-06T07:30:36;19.53;;;11.47;;
12986;SDS011;58897;51.960;5.582;2023-04-06T07:33:04;18.80;;;10.57;;
12986;SDS011;58897;51.960;5.582;2023-04-06T07:35:31;17.23;;;10.23;;
12986;SDS011;58897;51.960;5.582;2023-04-06T07:37:58;22.63;;;10.27;;
12986;SDS011;58897;51.960;5.582;2023-04-06T07:40:24;17.07;;;10.20;;
12986;SDS011;58897;51.960;5.582;2023-04-06T07:42:52;18.27;;;9.93;;
12986;SDS011;58897;51.960;5.582;2023-04-06T07:45:23;20.57;;;10.87;;
12986;SDS011;58897;51.960;5.582;2023-04-06T07:47:49;19.20;;;11.20;;
12986;SDS011;58897;51.960;5.582;2023-04-06T07:50:16;17.03;;;9.83;;
12986;SDS011;58897;51.960;5.582;2023-04-06T07:52:43;18.87;;;10.40;;
12986;SDS011;58897;51.960;5.582;2023-04-06T07:55:09;19.37;;;10.23;;
12986;SDS011;58897;51.960;5.582;2023-04-06T07:57:36;24.83;;;12.27;;
12986;SDS011;58897;51.960;5.582;2023-04-06T08:00:04;19.70;;;11.07;;
12986;SDS011;58897;51.960;5.582;2023-04-06T08:02:31;21.33;;;11.17;;
12986;SDS011;58897;51.960;5.582;2023-04-06T08:04:58;16.40;;;9.53;;
12986;SDS011;58897;51.960;5.582;2023-04-06T08:07:24;24.53;;;13.43;;
12986;SDS011;58897;51.960;5.582;2023-04-06T08:09:51;20.47;;;10.73;;
12986;SDS011;58897;51.960;5.582;2023-04-06T08:12:18;19.17;;;10.73;;
12986;SDS011;58897;51.960;5.582;2023-04-06T08:14:44;19.23;;;10.77;;
12986;SDS011;58897;51.960;5.582;2023-04-06T08:17:11;18.77;;;10.27;;
12986;SDS011;58897;51.960;5.582;2023-04-06T08:19:38;24.93;;;11.93;;
12986;SDS011;58897;51.960;5.582;2023-04-06T08:22:05;19.20;;;11.37;;
12986;SDS011;58897;51.960;5.582;2023-04-06T08:24:31;18.70;;;11.93;;
12986;SDS011;58897;51.960;5.582;2023-04-06T08:26:58;19.47;;;11.80;;
12986;SDS011;58897;51.960;5.582;2023-04-06T08:29:25;19.43;;;11.13;;
12986;SDS011;58897;51.960;5.582;2023-04-06T08:31:51;19.37;;;11.43;;
12986;SDS011;58897;51.960;5.582;2023-04-06T08:34:20;20.17;;;11.30;;
12986;SDS011;58897;51.960;5.582;2023-04-06T08:36:47;18.27;;;10.97;;
12986;SDS011;58897;51.960;5.582;2023-04-06T08:39:13;20.53;;;11.37;;
12986;SDS011;58897;51.960;5.582;2023-04-06T08:41:41;22.40;;;12.03;;
12986;SDS011;58897;51.960;5.582;2023-04-06T08:44:11;19.13;;;10.37;;
12986;SDS011;58897;51.960;5.582;2023-04-06T08:46:38;21.23;;;12.30;;
12986;SDS011;58897;51.960;5.582;2023-04-06T08:49:04;19.00;;;11.67;;
12986;SDS011;58897;51.960;5.582;2023-04-06T08:51:34;20.93;;;11.97;;
12986;SDS011;58897;51.960;5.582;2023-04-06T08:54:04;18.13;;;10.60;;
12986;SDS011;58897;51.960;5.582;2023-04-06T08:56:31;25.23;;;12.20;;
12986;SDS011;58897;51.960;5.582;2023-04-06T08:58:58;22.93;;;11.53;;
12986;SDS011;58897;51.960;5.582;2023-04-06T09:01:28;18.47;;;11.40;;
12986;SDS011;58897;51.960;5.582;2023-04-06T09:03:59;21.20;;;11.73;;
12986;SDS011;58897;51.960;5.582;2023-04-06T09:06:28;17.83;;;10.43;;
12986;SDS011;58897;51.960;5.582;2023-04-06T09:08:54;20.57;;;11.70;;
12986;SDS011;58897;51.960;5.582;2023-04-06T09:11:21;20.17;;;11.43;;
12986;SDS011;58897;51.960;5.582;2023-04-06T09:13:53;16.03;;;10.13;;
12986;SDS011;58897;51.960;5.582;2023-04-06T09:16:21;20.03;;;10.70;;
12986;SDS011;58897;51.960;5.582;2023-04-06T09:18:49;18.73;;;11.27;;
12986;SDS011;58897;51.960;5.582;2023-04-06T09:21:17;23.03;;;11.13;;
12986;SDS011;58897;51.960;5.582;2023-04-06T09:23:46;22.53;;;12.47;;
12986;SDS011;58897;51.960;5.582;2023-04-06T09:26:16;24.80;;;11.93;;
12986;SDS011;58897;51.960;5.582;2023-04-06T09:28:52;17.03;;;10.70;;
12986;SDS011;58897;51.960;5.582;2023-04-06T09:31:24;24.20;;;12.27;;
12986;SDS011;58897;51.960;5.582;2023-04-06T09:33:52;16.63;;;9.73;;
12986;SDS011;58897;51.960;5.582;2023-04-06T09:36:19;20.23;;;11.00;;
12986;SDS011;58897;51.960;5.582;2023-04-06T09:38:53;21.57;;;11.07;;
12986;SDS011;58897;51.960;5.582;2023-04-06T09:41:34;21.70;;;11.27;;
12986;SDS011;58897;51.960;5.582;2023-04-06T09:46:33;19.73;;;11.23;;
12986;SDS011;58897;51.960;5.582;2023-04-06T09:49:20;23.73;;;11.27;;
12986;SDS011;58897;51.960;5.582;2023-04-06T09:51:53;23.40;;;11.83;;
12986;SDS011;58897;51.960;5.582;2023-04-06T09:54:22;20.47;;;11.60;;
12986;SDS011;58897;51.960;5.582;2023-04-06T10:02:58;22.90;;;11.30;;
12986;SDS011;58897;51.960;5.582;2023-04-06T10:05:40;20.63;;;11.80;;
12986;SDS011;58897;51.960;5.582;2023-04-06T10:08:13;22.23;;;10.97;;
12986;SDS011;58897;51.960;5.582;2023-04-06T10:10:40;19.60;;;10.93;;
12986;SDS011;58897;51.960;5.582;2023-04-06T10:13:07;20.73;;;10.87;;
12986;SDS011;58897;51.960;5.582;2023-04-06T10:15:37;19.23;;;10.80;;
12986;SDS011;58897;51.960;5.582;2023-04-06T10:18:04;20.60;;;11.20;;
12986;SDS011;58897;51.960;5.582;2023-04-06T10:20:35;20.20;;;10.87;;
12986;SDS011;58897;51.960;5.582;2023-04-06T10:25:53;18.33;;;10.80;;
12986;SDS011;58897;51.960;5.582;2023-04-06T10:28:21;19.90;;;10.57;;
12986;SDS011;58897;51.960;5.582;2023-04-06T10:30:48;20.70;;;10.73;;
12986;SDS011;58897;51.960;5.582;2023-04-06T10:33:19;19.70;;;9.87;;
12986;SDS011;58897;51.960;5.582;2023-04-06T10:35:46;20.97;;;11.13;;
12986;SDS011;58897;51.960;5.582;2023-04-06T10:38:13;15.43;;;9.33;;
12986;SDS011;58897;51.960;5.582;2023-04-06T10:40:41;16.40;;;10.47;;
12986;SDS011;58897;51.960;5.582;2023-04-06T10:43:20;16.87;;;8.40;;
12986;SDS011;58897;51.960;5.582;2023-04-06T10:45:55;15.40;;;8.90;;
12986;SDS011;58897;51.960;5.582;2023-04-06T10:48:23;16.30;;;8.80;;
12986;SDS011;58897;51.960;5.582;2023-04-06T10:50:51;15.47;;;8.30;;
12986;SDS011;58897;51.960;5.582;2023-04-06T10:53:22;9.70;;;5.73;;
12986;SDS011;58897;51.960;5.582;2023-04-06T10:55:53;12.47;;;6.83;;
12986;SDS011;58897;51.960;5.582;2023-04-06T10:58:24;8.57;;;5.60;;
12986;SDS011;58897;51.960;5.582;2023-04-06T11:00:52;10.80;;;6.13;;
12986;SDS011;58897;51.960;5.582;2023-04-06T11:03:20;9.67;;;6.17;;
12986;SDS011;58897;51.960;5.582;2023-04-06T11:05:47;12.03;;;7.07;;
12986;SDS011;58897;51.960;5.582;2023-04-06T11:11:07;11.80;;;6.00;;
12986;SDS011;58897;51.960;5.582;2023-04-06T11:13:41;9.93;;;5.50;;
12986;SDS011;58897;51.960;5.582;2023-04-06T11:16:16;9.70;;;5.07;;
12986;SDS011;58897;51.960;5.582;2023-04-06T11:18:51;10.33;;;6.07;;
12986;SDS011;58897;51.960;5.582;2023-04-06T11:26:46;13.57;;;6.43;;
12986;SDS011;58897;51.960;5.582;2023-04-06T11:29:18;7.37;;;5.30;;
12986;SDS011;58897;51.960;5.582;2023-04-06T11:31:47;12.03;;;6.03;;
12986;SDS011;58897;51.960;5.582;2023-04-06T11:34:18;10.07;;;6.10;;
12986;SDS011;58897;51.960;5.582;2023-04-06T11:36:46;13.43;;;6.93;;
12986;SDS011;58897;51.960;5.582;2023-04-06T11:39:18;11.87;;;6.03;;
12986;SDS011;58897;51.960;5.582;2023-04-06T11:41:49;11.07;;;6.33;;
12986;SDS011;58897;51.960;5.582;2023-04-06T11:44:31;10.83;;;6.13;;
12986;SDS011;58897;51.960;5.582;2023-04-06T11:47:03;8.87;;;5.30;;
12986;SDS011;58897;51.960;5.582;2023-04-06T11:49:31;9.60;;;5.03;;
12986;SDS011;58897;51.960;5.582;2023-04-06T11:51:58;6.83;;;4.70;;
12986;SDS011;58897;51.960;5.582;2023-04-06T11:55:09;8.63;;;5.10;;
12986;SDS011;58897;51.960;5.582;2023-04-06T11:57:25;9.30;;;4.67;;
12986;SDS011;58897;51.960;5.582;2023-04-06T11:59:52;9.67;;;4.80;;
12986;SDS011;58897;51.960;5.582;2023-04-06T12:02:18;7.97;;;4.67;;
12986;SDS011;58897;51.960;5.582;2023-04-06T12:04:45;8.20;;;4.33;;
12986;SDS011;58897;51.960;5.582;2023-04-06T12:07:13;10.00;;;5.67;;
12986;SDS011;58897;51.960;5.582;2023-04-06T12:09:41;8.03;;;4.53;;
12986;SDS011;58897;51.960;5.582;2023-04-06T12:12:07;7.97;;;3.80;;
12986;SDS011;58897;51.960;5.582;2023-04-06T12:14:33;4.80;;;3.37;;
12986;SDS011;58897;51.960;5.582;2023-04-06T12:17:00;7.50;;;3.33;;
12986;SDS011;58897;51.960;5.582;2023-04-06T12:19:27;5.60;;;3.60;;
12986;SDS011;58897;51.960;5.582;2023-04-06T12:21:55;8.87;;;4.50;;
12986;SDS011;58897;51.960;5.582;2023-04-06T12:24:23;4.87;;;3.20;;
12986;SDS011;58897;51.960;5.582;2023-04-06T12:26:50;7.47;;;4.47;;
12986;SDS011;58897;51.960;5.582;2023-04-06T12:29:28;6.13;;;3.63;;
12986;SDS011;58897;51.960;5.582;2023-04-06T12:31:54;8.80;;;4.90;;
12986;SDS011;58897;51.960;5.582;2023-04-06T12:34:25;5.73;;;3.87;;
12986;SDS011;58897;51.960;5.582;2023-04-06T12:36:51;9.20;;;5.37;;
12986;SDS011;58897;51.960;5.582;2023-04-06T12:39:18;5.47;;;3.83;;
12986;SDS011;58897;51.960;5.582;2023-04-06T12:41:46;8.23;;;4.80;;
12986;SDS011;58897;51.960;5.582;2023-04-06T12:44:13;8.60;;;4.93;;
12986;SDS011;58897;51.960;5.582;2023-04-06T12:46:39;12.50;;;5.63;;
12986;SDS011;58897;51.960;5.582;2023-04-06T12:49:06;7.73;;;4.37;;
12986;SDS011;58897;51.960;5.582;2023-04-06T12:51:33;8.33;;;5.17;;
12986;SDS011;58897;51.960;5.582;2023-04-06T12:53:59;8.53;;;4.53;;
12986;SDS011;58897;51.960;5.582;2023-04-06T12:56:27;6.73;;;3.83;;
12986;SDS011;58897;51.960;5.582;2023-04-06T12:58:54;7.43;;;4.63;;
12986;SDS011;58897;51.960;5.582;2023-04-06T13:01:21;8.13;;;4.77;;
12986;SDS011;58897;51.960;5.582;2023-04-06T13:03:48;7.80;;;4.37;;
12986;SDS011;58897;51.960;5.582;2023-04-06T13:06:15;10.37;;;4.67;;
12986;SDS011;58897;51.960;5.582;2023-04-06T13:08:42;8.67;;;4.50;;
12986;SDS011;58897;51.960;5.582;2023-04-06T13:11:10;7.10;;;4.20;;
12986;SDS011;58897;51.960;5.582;2023-04-06T13:13:36;8.97;;;4.00;;
12986;SDS011;58897;51.960;5.582;2023-04-06T13:16:04;8.73;;;4.60;;
12986;SDS011;58897;51.960;5.582;2023-04-06T13:18:35;6.83;;;4.23;;
12986;SDS011;58897;51.960;5.582;2023-04-06T13:21:03;8.20;;;4.30;;
12986;SDS011;58897;51.960;5.582;2023-04-06T13:23:30;7.30;;;5.00;;
12986;SDS011;58897;51.960;5.582;2023-04-06T13:26:00;9.27;;;5.07;;
12986;SDS011;58897;51.960;5.582;2023-04-06T13:28:34;7.70;;;4.20;;
12986;SDS011;58897;51.960;5.582;2023-04-06T13:31:04;8.43;;;4.60;;
12986;SDS011;58897;51.960;5.582;2023-04-06T13:33:31;8.67;;;5.37;;
12986;SDS011;58897;51.960;5.582;2023-04-06T13:35:57;11.17;;;5.93;;
12986;SDS011;58897;51.960;5.582;2023-04-06T13:38:24;7.83;;;5.10;;
12986;SDS011;58897;51.960;5.582;2023-04-06T13:40:51;10.30;;;5.20;;
12986;SDS011;58897;51.960;5.582;2023-04-06T13:43:17;9.33;;;4.93;;
12986;SDS011;58897;51.960;5.582;2023-04-06T13:45:50;8.80;;;5.20;;
12986;SDS011;58897;51.960;5.582;2023-04-06T13:48:18;9.40;;;5.17;;
12986;SDS011;58897;51.960;5.582;2023-04-06T13:50:44;9.03;;;4.63;;
12986;SDS011;58897;51.960;5.582;2023-04-06T13:53:11;12.23;;;5.37;;
12986;SDS011;58897;51.960;5.582;2023-04-06T13:55:38;10.80;;;5.33;;
12986;SDS011;58897;51.960;5.582;2023-04-06T13:58:05;9.20;;;5.00;;
12986;SDS011;58897;51.960;5.582;2023-04-06T14:00:31;8.60;;;5.40;;
12986;SDS011;58897;51.960;5.582;2023-04-06T14:02:58;8.93;;;5.40;;
12986;SDS011;58897;51.960;5.582;2023-04-06T14:05:25;10.30;;;5.67;;
12986;SDS011;58897;51.960;5.582;2023-04-06T14:07:53;8.17;;;4.93;;
12986;SDS011;58897;51.960;5.582;2023-04-06T14:10:20;8.77;;;5.57;;
12986;SDS011;58897;51.960;5.582;2023-04-06T14:12:49;7.97;;;5.00;;
12986;SDS011;58897;51.960;5.582;2023-04-06T14:15:16;9.03;;;4.33;;
12986;SDS011;58897;51.960;5.582;2023-04-06T14:17:43;10.80;;;5.70;;
12986;SDS011;58897;51.960;5.582;2023-04-06T14:20:10;10.17;;;4.90;;
12986;SDS011;58897;51.960;5.582;2023-04-06T14:22:40;11.07;;;5.47;;
12986;SDS011;58897;51.960;5.582;2023-04-06T14:25:09;10.30;;;5.90;;
12986;SDS011;58897;51.960;5.582;2023-04-06T14:27:37;9.40;;;5.80;;
12986;SDS011;58897;51.960;5.582;2023-04-06T14:30:04;9.50;;;5.80;;
12986;SDS011;58897;51.960;5.582;2023-04-06T14:32:32;10.17;;;4.70;;
12986;SDS011;58897;51.960;5.582;2023-04-06T14:34:59;11.67;;;6.07;;
12986;SDS011;58897;51.960;5.582;2023-04-06T14:37:25;10.33;;;6.43;;
12986;SDS011;58897;51.960;5.582;2023-04-06T14:39:52;10.70;;;5.80;;
12986;SDS011;58897;51.960;5.582;2023-04-06T14:42:18;12.53;;;6.27;;
12986;SDS011;58897;51.960;5.582;2023-04-06T14:44:46;9.80;;;5.70;;
12986;SDS011;58897;51.960;5.582;2023-04-06T14:47:16;17.70;;;6.00;;
12986;SDS011;58897;51.960;5.582;2023-04-06T14:49:47;8.90;;;5.37;;
12986;SDS011;58897;51.960;5.582;2023-04-06T14:52:15;13.03;;;5.73;;
12986;SDS011;58897;51.960;5.582;2023-04-06T14:54:42;9.63;;;5.43;;
12986;SDS011;58897;51.960;5.582;2023-04-06T14:57:08;12.00;;;5.63;;